createdAt,value
2023-05-05T00:01:01.166Z,6.77
2023-05-05T00:03:29.198Z,7.27
2023-05-05T00:05:57.456Z,7.03
2023-05-05T00:08:25.219Z,6.77
2023-05-05T00:10:54.182Z,11.33
2023-05-05T00:13:23.435Z,7.33
2023-05-05T00:15:53.667Z,12.00
2023-05-05T00:18:21.971Z,14.17
2023-05-05T00:20:50.071Z,6.40
2023-05-05T00:23:18.165Z,9.53
2023-05-05T00:25:45.879Z,8.63
2023-05-05T00:28:14.086Z,6.80
2023-05-05T00:30:43.552Z,7.70
2023-05-05T00:33:11.352Z,10.03
2023-05-05T00:35:39.376Z,7.93
2023-05-05T00:38:07.421Z,7.13
2023-05-05T00:40:35.220Z,8.03
2023-05-05T00:43:02.969Z,8.67
2023-05-05T00:45:31.721Z,8.00
2023-05-05T00:48:01.649Z,11.03
2023-05-05T00:50:31.380Z,9.50
2023-05-05T00:53:02.457Z,6.70
2023-05-05T00:55:30.864Z,9.43
2023-05-05T00:57:59.753Z,6.33
2023-05-05T01:00:28.604Z,9.30
2023-05-05T01:02:56.565Z,8.07
2023-05-05T01:05:28.112Z,7.93
2023-05-05T01:08:09.323Z,7.10
2023-05-05T01:10:40.150Z,8.87
2023-05-05T01:13:23.258Z,8.07
2023-05-05T01:15:56.674Z,6.73
2023-05-05T01:18:33.506Z,8.77
2023-05-05T01:21:07.666Z,8.20
2023-05-05T01:23:54.667Z,9.60
2023-05-05T01:26:44.345Z,8.83
2023-05-05T01:29:32.516Z,8.40
2023-05-05T01:32:05.038Z,9.63
2023-05-05T01:34:37.330Z,10.40
2023-05-05T01:37:11.012Z,8.60
2023-05-05T01:39:41.392Z,9.03
2023-05-05T01:42:13.856Z,7.23
2023-05-05T01:44:44.495Z,9.37
2023-05-05T01:47:15.917Z,6.60
2023-05-05T01:49:46.869Z,8.93
2023-05-05T01:52:16.153Z,7.83
2023-05-05T01:54:46.118Z,8.97
2023-05-05T01:57:15.659Z,8.23
2023-05-05T01:59:43.698Z,6.67
2023-05-05T02:02:14.014Z,6.93
2023-05-05T02:04:44.975Z,8.77
2023-05-05T02:07:14.953Z,10.87
2023-05-05T02:09:45.468Z,7.80
2023-05-05T02:12:13.753Z,7.97
2023-05-05T02:14:43.581Z,11.20
2023-05-05T02:17:12.298Z,9.37
2023-05-05T02:19:44.841Z,7.87
2023-05-05T02:22:15.404Z,8.93
2023-05-05T02:24:43.591Z,9.00
2023-05-05T02:27:12.744Z,7.87
2023-05-05T02:29:46.870Z,7.83
2023-05-05T02:32:19.835Z,10.90
2023-05-05T02:34:51.200Z,10.33
2023-05-05T02:37:22.253Z,8.90
2023-05-05T02:39:58.802Z,9.30
2023-05-05T02:42:30.472Z,13.40
2023-05-05T02:45:00.709Z,10.10
2023-05-05T02:47:35.009Z,7.90
2023-05-05T02:50:04.294Z,9.27
2023-05-05T02:52:32.936Z,7.07
2023-05-05T02:55:01.207Z,9.07
2023-05-05T02:57:36.631Z,13.20
2023-05-05T03:00:09.600Z,8.53
2023-05-05T03:02:45.480Z,8.90
2023-05-05T03:05:20.743Z,8.77
2023-05-05T03:07:54.722Z,20.23
2023-05-05T03:10:28.640Z,13.83
2023-05-05T03:12:59.367Z,9.20
2023-05-05T03:15:31.278Z,8.90
2023-05-05T03:17:59.971Z,12.70
2023-05-05T03:20:30.541Z,7.77
2023-05-05T03:22:58.608Z,11.87
2023-05-05T03:25:44.587Z,7.57
2023-05-05T03:28:12.538Z,11.27
2023-05-05T03:30:40.629Z,11.20
2023-05-05T03:33:09.489Z,10.27
2023-05-05T03:35:38.710Z,11.10
2023-05-05T03:38:06.477Z,15.53
2023-05-05T03:40:43.619Z,11.17
2023-05-05T03:43:12.243Z,17.77
2023-05-05T03:45:40.051Z,12.10
2023-05-05T03:48:09.635Z,9.63
2023-05-05T03:50:38.798Z,9.40
2023-05-05T03:53:06.490Z,13.30
2023-05-05T03:55:34.193Z,12.77
2023-05-05T03:58:01.925Z,9.57
2023-05-05T04:00:29.669Z,9.30
2023-05-05T04:02:57.474Z,11.03
2023-05-05T04:05:25.389Z,9.53
2023-05-05T04:07:54.426Z,7.93
2023-05-05T04:10:22.454Z,7.13
2023-05-05T04:12:50.240Z,10.97
2023-05-05T04:15:17.997Z,10.60
2023-05-05T04:17:45.805Z,11.67
2023-05-05T04:20:13.651Z,10.53
2023-05-05T04:22:41.416Z,10.03
2023-05-05T04:25:10.947Z,9.37
2023-05-05T04:27:38.707Z,9.40
2023-05-05T04:30:07.793Z,8.57
2023-05-05T04:32:35.902Z,13.17
2023-05-05T04:35:03.701Z,10.47
2023-05-05T04:37:31.421Z,14.33
2023-05-05T04:39:59.115Z,9.63
2023-05-05T04:42:28.198Z,10.03
2023-05-05T04:44:56.074Z,10.50
2023-05-05T04:47:23.810Z,9.80
2023-05-05T04:49:51.582Z,8.73
2023-05-05T04:52:19.274Z,12.20
2023-05-05T04:54:46.991Z,12.97
2023-05-05T04:57:14.728Z,9.93
2023-05-05T04:59:43.762Z,11.87
2023-05-05T05:02:11.860Z,11.03
2023-05-05T05:04:39.707Z,13.53
2023-05-05T05:07:07.404Z,10.70
2023-05-05T05:09:35.120Z,13.30
2023-05-05T05:12:03.812Z,10.20
2023-05-05T05:14:31.563Z,13.33
2023-05-05T05:17:00.604Z,9.10
2023-05-05T05:19:28.320Z,12.17
2023-05-05T05:21:56.011Z,11.67
2023-05-05T05:24:24.819Z,12.20
2023-05-05T05:26:52.662Z,8.77
2023-05-05T05:29:20.574Z,12.60
2023-05-05T05:31:48.293Z,8.20
2023-05-05T05:34:17.431Z,14.07
2023-05-05T05:36:45.124Z,10.33
2023-05-05T05:39:13.486Z,13.57
2023-05-05T05:41:41.202Z,10.93
2023-05-05T05:44:08.933Z,10.57
2023-05-05T05:46:36.717Z,15.40
2023-05-05T05:49:04.527Z,15.17
2023-05-05T05:51:33.679Z,17.27
2023-05-05T05:54:01.393Z,15.90
2023-05-05T05:56:29.163Z,13.20
2023-05-05T05:58:57.163Z,12.87
2023-05-05T06:01:24.866Z,14.43
2023-05-05T06:03:52.801Z,10.87
2023-05-05T06:06:20.622Z,14.47
2023-05-05T06:08:49.625Z,12.30
2023-05-05T06:11:17.717Z,14.85
2023-05-05T06:13:45.451Z,10.45
2023-05-05T06:16:13.240Z,15.13
2023-05-05T06:18:41.020Z,11.10
2023-05-05T06:21:08.816Z,13.18
2023-05-05T06:23:36.553Z,15.15
2023-05-05T06:26:05.631Z,11.18
2023-05-05T06:28:33.369Z,12.68
2023-05-05T06:31:01.370Z,11.68
2023-05-05T06:33:29.159Z,11.55
2023-05-05T06:35:56.940Z,10.68
2023-05-05T06:38:24.688Z,11.15
2023-05-05T06:40:52.457Z,10.18
2023-05-05T06:43:21.957Z,10.43
2023-05-05T06:45:49.656Z,10.55
2023-05-05T06:48:17.381Z,15.57
2023-05-05T06:50:45.071Z,13.45
2023-05-05T06:53:12.835Z,15.98
2023-05-05T06:55:44.062Z,12.20
2023-05-05T06:58:11.880Z,9.63
2023-05-05T07:00:41.168Z,10.10
2023-05-05T07:03:09.081Z,14.35
2023-05-05T07:05:37.549Z,10.73
2023-05-05T07:08:05.474Z,11.00
2023-05-05T07:10:34.108Z,13.88
2023-05-05T07:13:02.027Z,19.20
2023-05-05T07:15:29.957Z,13.98
2023-05-05T07:17:59.195Z,11.80
2023-05-05T07:20:27.435Z,9.65
2023-05-05T07:22:55.285Z,12.50
2023-05-05T07:25:23.282Z,12.38
2023-05-05T07:27:51.175Z,10.88
2023-05-05T07:30:19.469Z,13.15
2023-05-05T07:32:47.772Z,13.68
2023-05-05T07:35:16.971Z,11.57
2023-05-05T07:37:45.454Z,18.08
2023-05-05T07:40:13.899Z,14.32
2023-05-05T07:42:41.719Z,15.82
2023-05-05T07:45:10.021Z,12.32
2023-05-05T07:47:38.061Z,11.48
2023-05-05T07:50:07.136Z,11.93
2023-05-05T07:52:46.595Z,13.15
2023-05-05T07:55:17.634Z,11.80
2023-05-05T07:57:45.421Z,19.70
2023-05-05T08:00:14.448Z,15.50
2023-05-05T08:02:42.482Z,15.40
2023-05-05T08:05:10.562Z,12.45
2023-05-05T08:07:41.802Z,9.20
2023-05-05T08:10:10.795Z,10.07
2023-05-05T08:12:38.880Z,9.40
2023-05-05T08:15:07.810Z,12.07
2023-05-05T08:17:46.795Z,11.85
2023-05-05T08:20:14.663Z,9.48
2023-05-05T08:22:44.092Z,9.95
2023-05-05T08:25:12.994Z,8.50
2023-05-05T08:27:41.727Z,7.72
2023-05-05T08:30:10.736Z,7.18
2023-05-05T08:32:38.987Z,9.07
2023-05-05T08:35:08.092Z,8.85
2023-05-05T08:37:36.147Z,8.90
2023-05-05T08:40:07.531Z,11.23
2023-05-05T08:42:37.807Z,12.02
2023-05-05T08:45:08.077Z,7.53
2023-05-05T08:47:36.702Z,9.65
2023-05-05T08:50:05.937Z,9.25
2023-05-05T08:52:40.171Z,8.13
2023-05-05T08:55:15.272Z,10.60
2023-05-05T08:57:48.752Z,8.02
2023-05-05T09:00:19.573Z,7.38
2023-05-05T09:02:48.417Z,7.20
2023-05-05T09:05:16.788Z,9.45
2023-05-05T09:07:45.224Z,7.60
2023-05-05T09:10:15.247Z,8.32
2023-05-05T09:12:43.226Z,7.10
2023-05-05T09:15:12.592Z,9.50
2023-05-05T09:17:40.891Z,7.53
2023-05-05T09:20:10.521Z,12.13
2023-05-05T09:22:39.769Z,6.35
2023-05-05T09:25:10.100Z,6.53
2023-05-05T09:27:40.784Z,12.20
2023-05-05T09:30:10.055Z,10.25
2023-05-05T09:32:47.964Z,8.18
2023-05-05T09:35:16.570Z,8.82
2023-05-05T09:37:44.932Z,8.75
2023-05-05T09:40:15.378Z,6.82
2023-05-05T09:42:45.331Z,10.60
2023-05-05T09:45:27.374Z,7.30
2023-05-05T09:47:59.746Z,8.77
2023-05-05T09:50:30.760Z,12.20
2023-05-05T09:53:00.077Z,8.10
2023-05-05T09:55:28.012Z,8.65
2023-05-05T09:57:57.317Z,9.27
2023-05-05T10:00:39.433Z,7.30
2023-05-05T10:03:07.331Z,6.55
2023-05-05T10:05:48.843Z,7.60
2023-05-05T10:08:17.495Z,8.32
2023-05-05T10:10:50.436Z,6.90
2023-05-05T10:13:20.613Z,8.05
2023-05-05T10:15:49.752Z,5.93
2023-05-05T10:18:21.440Z,8.15
2023-05-05T10:20:53.906Z,6.50
2023-05-05T10:23:24.510Z,11.45
2023-05-05T10:25:56.454Z,11.30
2023-05-05T10:28:32.369Z,6.07
2023-05-05T10:31:07.637Z,5.70
2023-05-05T10:33:48.760Z,7.63
2023-05-05T10:36:17.672Z,11.57
2023-05-05T10:38:47.304Z,5.78
2023-05-05T10:41:15.220Z,5.43
2023-05-05T10:43:44.729Z,6.03
2023-05-05T10:46:12.772Z,7.90
2023-05-05T10:48:47.952Z,8.38
2023-05-05T10:51:39.250Z,10.25
2023-05-05T10:54:14.744Z,5.35
2023-05-05T10:56:43.772Z,10.23
2023-05-05T10:59:44.445Z,8.05
2023-05-05T11:02:28.715Z,4.57
2023-05-05T11:05:17.857Z,5.15
2023-05-05T11:07:46.974Z,6.47
2023-05-05T11:10:16.459Z,7.13
2023-05-05T11:13:18.932Z,5.90
2023-05-05T11:15:48.593Z,5.78
2023-05-05T11:18:37.331Z,4.32
2023-05-05T11:21:24.423Z,6.30
2023-05-05T11:23:53.887Z,6.20
2023-05-05T11:26:52.457Z,5.43
2023-05-05T11:29:20.202Z,7.20
2023-05-05T11:32:12.313Z,7.30
2023-05-05T11:34:49.287Z,9.75
2023-05-05T11:37:17.177Z,8.85
2023-05-05T11:39:54.452Z,5.20
2023-05-05T11:42:26.642Z,7.35
2023-05-05T11:44:55.601Z,5.88
2023-05-05T11:47:32.227Z,5.32
2023-05-05T11:50:17.324Z,5.43
2023-05-05T11:52:45.069Z,6.03
2023-05-05T11:55:13.032Z,5.82
2023-05-05T11:57:41.336Z,5.03
2023-05-05T12:00:10.156Z,6.93
2023-05-05T12:02:39.459Z,8.23
2023-05-05T12:05:08.207Z,7.70
2023-05-05T12:07:36.495Z,5.22
2023-05-05T12:10:04.443Z,4.50
2023-05-05T12:12:37.132Z,4.38
2023-05-05T12:15:05.878Z,4.72
2023-05-05T12:17:44.947Z,7.78
2023-05-05T12:20:13.797Z,5.80
2023-05-05T12:22:41.892Z,3.80
2023-05-05T12:25:10.437Z,6.15
2023-05-05T12:27:38.729Z,5.72
2023-05-05T12:30:15.621Z,7.68
2023-05-05T12:32:45.609Z,4.47
2023-05-05T12:35:14.458Z,6.03
2023-05-05T12:37:43.432Z,5.50
2023-05-05T12:40:45.127Z,3.85
2023-05-05T12:43:25.125Z,4.57
2023-05-05T12:46:03.739Z,6.82
2023-05-05T12:48:33.266Z,7.57
2023-05-05T12:51:14.918Z,5.35
2023-05-05T12:53:43.160Z,6.53
2023-05-05T12:56:30.392Z,4.07
2023-05-05T12:58:58.162Z,5.95
2023-05-05T13:01:25.939Z,6.97
2023-05-05T13:04:12.125Z,5.32
2023-05-05T13:06:40.536Z,5.70
2023-05-05T13:09:08.988Z,6.13
2023-05-05T13:11:37.615Z,4.35
2023-05-05T13:14:05.501Z,4.80
2023-05-05T13:16:33.785Z,5.00
2023-05-05T13:19:01.525Z,4.90
2023-05-05T13:21:30.573Z,6.13
2023-05-05T13:24:08.115Z,5.10
2023-05-05T13:26:40.491Z,4.72
2023-05-05T13:29:08.204Z,5.43
2023-05-05T13:31:36.026Z,3.47
2023-05-05T13:34:03.865Z,8.18
2023-05-05T13:36:32.908Z,3.58
2023-05-05T13:39:00.648Z,6.88
2023-05-05T13:41:28.652Z,3.92
2023-05-05T13:43:56.625Z,5.03
2023-05-05T13:46:24.390Z,4.03
2023-05-05T13:48:55.974Z,4.65
2023-05-05T13:51:24.209Z,6.55
2023-05-05T13:53:53.288Z,4.05
2023-05-05T13:56:23.413Z,3.80
2023-05-05T13:58:51.314Z,6.43
2023-05-05T14:01:19.099Z,8.43
2023-05-05T14:03:46.896Z,6.00
2023-05-05T14:06:14.578Z,4.15
2023-05-05T14:08:42.670Z,5.80
2023-05-05T14:11:11.972Z,6.18
2023-05-05T14:13:39.678Z,4.45
2023-05-05T14:16:07.736Z,5.90
2023-05-05T14:18:35.746Z,4.07
2023-05-05T14:21:03.444Z,3.97
2023-05-05T14:23:31.933Z,7.10
2023-05-05T14:25:59.634Z,4.03
2023-05-05T14:28:28.710Z,9.88
2023-05-05T14:30:56.659Z,3.90
2023-05-05T14:33:24.418Z,5.20
2023-05-05T14:35:52.232Z,6.18
2023-05-05T14:38:20.093Z,6.45
2023-05-05T14:40:47.842Z,4.03
2023-05-05T14:43:15.547Z,5.30
2023-05-05T14:45:45.132Z,3.45
2023-05-05T14:48:12.941Z,6.22
2023-05-05T14:50:42.436Z,6.03
2023-05-05T14:53:10.224Z,8.48
2023-05-05T14:55:38.411Z,6.25
2023-05-05T14:58:06.258Z,5.05
2023-05-05T15:00:33.951Z,5.55
2023-05-05T15:03:03.174Z,4.25
2023-05-05T15:05:30.930Z,6.15
2023-05-05T15:07:58.674Z,6.35
2023-05-05T15:10:26.561Z,6.20
2023-05-05T15:12:54.597Z,4.88
2023-05-05T15:15:22.325Z,5.70
2023-05-05T15:17:50.079Z,4.95
2023-05-05T15:20:19.287Z,5.22
2023-05-05T15:22:48.983Z,5.38
2023-05-05T15:25:18.911Z,3.92
2023-05-05T15:27:46.628Z,9.25
2023-05-05T15:30:15.298Z,8.68
2023-05-05T15:32:43.258Z,5.80
2023-05-05T15:35:11.215Z,4.03
2023-05-05T15:37:40.755Z,13.32
2023-05-05T15:40:09.741Z,10.90
2023-05-05T15:42:37.782Z,5.68
2023-05-05T15:45:08.214Z,5.00
2023-05-05T15:47:36.037Z,7.20
2023-05-05T15:50:03.880Z,4.43
2023-05-05T15:52:31.565Z,6.53
2023-05-05T15:55:00.611Z,7.45
2023-05-05T15:57:28.420Z,8.02
2023-05-05T15:59:56.171Z,4.35
2023-05-05T16:02:24.424Z,3.20
2023-05-05T16:04:52.202Z,6.00
2023-05-05T16:07:20.046Z,6.72
2023-05-05T16:09:47.746Z,5.03
2023-05-05T16:12:16.872Z,9.13
2023-05-05T16:14:44.657Z,8.48
2023-05-05T16:17:12.392Z,6.55
2023-05-05T16:19:40.301Z,4.60
2023-05-05T16:22:08.031Z,4.10
2023-05-05T16:24:39.407Z,6.88
2023-05-05T16:27:09.570Z,7.20
2023-05-05T16:29:38.640Z,6.28
2023-05-05T16:32:07.778Z,6.47
2023-05-05T16:34:35.965Z,8.27
2023-05-05T16:37:03.690Z,9.32
2023-05-05T16:39:33.029Z,5.45
2023-05-05T16:42:00.855Z,8.02
2023-05-05T16:44:28.554Z,6.95
2023-05-05T16:46:58.352Z,7.28
2023-05-05T16:49:26.308Z,5.60
2023-05-05T16:51:54.503Z,7.15
2023-05-05T16:54:22.285Z,6.00
2023-05-05T16:56:50.041Z,5.15
2023-05-05T16:59:19.317Z,5.00
2023-05-05T17:01:47.203Z,7.35
2023-05-05T17:04:16.358Z,4.43
2023-05-05T17:06:44.104Z,8.00
2023-05-05T17:09:11.936Z,6.90
2023-05-05T17:11:39.697Z,4.57
2023-05-05T17:14:07.456Z,6.03
2023-05-05T17:16:35.694Z,8.68
2023-05-05T17:19:03.534Z,6.72
2023-05-05T17:21:32.854Z,6.28
2023-05-05T17:24:01.375Z,8.05
2023-05-05T17:26:29.183Z,5.20
2023-05-05T17:28:56.924Z,5.75
2023-05-05T17:31:24.651Z,7.13
2023-05-05T17:33:52.519Z,6.82
2023-05-05T17:36:20.446Z,4.32
2023-05-05T17:38:49.613Z,7.60
2023-05-05T17:41:17.594Z,5.15
2023-05-05T17:43:45.330Z,6.38
2023-05-05T17:46:13.189Z,5.82
2023-05-05T17:48:41.260Z,7.35
2023-05-05T17:51:09.051Z,8.95
2023-05-05T17:53:36.872Z,8.50
2023-05-05T17:56:08.687Z,7.97
2023-05-05T17:58:36.845Z,11.88
2023-05-05T18:01:04.794Z,10.77
2023-05-05T18:03:32.651Z,6.40
2023-05-05T18:06:01.218Z,5.97
2023-05-05T18:08:29.129Z,4.57
2023-05-05T18:10:57.154Z,9.23
2023-05-05T18:13:26.328Z,7.97
2023-05-05T18:15:54.128Z,5.07
2023-05-05T18:18:23.667Z,4.53
2023-05-05T18:20:54.877Z,5.03
2023-05-05T18:23:23.047Z,7.57
2023-05-05T18:25:51.091Z,3.65
2023-05-05T18:28:18.862Z,4.93
2023-05-05T18:30:47.907Z,6.82
2023-05-05T18:33:16.659Z,8.10
2023-05-05T18:35:44.396Z,6.75
2023-05-05T18:38:12.185Z,8.50
2023-05-05T18:40:39.895Z,6.35
2023-05-05T18:43:07.607Z,6.15
2023-05-05T18:45:35.622Z,5.30
2023-05-05T18:48:04.972Z,6.88
2023-05-05T18:50:33.304Z,4.43
2023-05-05T18:53:01.066Z,8.68
2023-05-05T18:55:28.896Z,7.40
2023-05-05T18:57:56.706Z,7.53
2023-05-05T19:00:24.663Z,5.85
2023-05-05T19:02:52.539Z,7.35
2023-05-05T19:05:22.220Z,9.73
2023-05-05T19:07:50.052Z,6.15
2023-05-05T19:10:17.763Z,8.40
2023-05-05T19:12:45.720Z,8.18
2023-05-05T19:15:14.123Z,14.77
2023-05-05T19:17:42.014Z,8.98
2023-05-05T19:20:10.869Z,8.15
2023-05-05T19:22:40.064Z,8.02
2023-05-05T19:25:09.005Z,7.55
2023-05-05T19:27:37.104Z,10.25
2023-05-05T19:30:05.399Z,9.40
2023-05-05T19:32:33.282Z,11.60
2023-05-05T19:35:01.487Z,6.80
2023-05-05T19:37:29.432Z,7.47
2023-05-05T19:39:58.514Z,15.48
2023-05-05T19:42:26.363Z,11.48
2023-05-05T19:44:54.177Z,10.85
2023-05-05T19:47:22.178Z,12.18
2023-05-05T19:49:49.938Z,10.13
2023-05-05T19:52:17.706Z,14.15
2023-05-05T19:54:45.683Z,9.80
2023-05-05T19:57:14.971Z,11.88
2023-05-05T19:59:42.757Z,12.45
2023-05-05T20:02:11.554Z,8.55
2023-05-05T20:04:39.446Z,14.70
2023-05-05T20:07:07.218Z,8.82
2023-05-05T20:09:35.084Z,9.52
2023-05-05T20:12:02.890Z,9.25
2023-05-05T20:14:32.405Z,7.75
2023-05-05T20:17:00.163Z,6.90
2023-05-05T20:19:28.021Z,10.25
2023-05-05T20:21:57.027Z,10.00
2023-05-05T20:24:24.875Z,10.50
2023-05-05T20:26:52.618Z,9.20
2023-05-05T20:29:20.745Z,11.60
2023-05-05T20:31:50.127Z,8.05
2023-05-05T20:34:18.080Z,9.10
2023-05-05T20:36:46.128Z,7.55
2023-05-05T20:39:16.332Z,9.82
2023-05-05T20:41:44.310Z,8.00
2023-05-05T20:44:12.166Z,8.30
2023-05-05T20:46:39.950Z,7.20
2023-05-05T20:49:09.067Z,13.57
2023-05-05T20:51:36.781Z,7.55
2023-05-05T20:54:05.020Z,9.48
2023-05-05T20:56:32.785Z,12.27
2023-05-05T20:59:00.931Z,11.70
2023-05-05T21:01:29.155Z,10.35
2023-05-05T21:03:56.947Z,10.23
2023-05-05T21:06:26.029Z,11.02
2023-05-05T21:08:53.776Z,14.50
2023-05-05T21:11:21.520Z,7.32
2023-05-05T21:13:49.235Z,8.57
2023-05-05T21:16:17.046Z,5.05
2023-05-05T21:18:46.728Z,8.38
2023-05-05T21:21:14.497Z,5.60
2023-05-05T21:23:43.540Z,10.57
2023-05-05T21:26:11.304Z,7.43
2023-05-05T21:28:38.994Z,8.02
2023-05-05T21:31:21.240Z,8.93
2023-05-05T21:33:49.818Z,6.93
2023-05-05T21:36:19.087Z,12.70
2023-05-05T21:38:48.244Z,6.93
2023-05-05T21:41:16.679Z,12.20
2023-05-05T21:43:44.459Z,7.32
2023-05-05T21:46:12.258Z,11.20
2023-05-05T21:48:41.396Z,7.68
2023-05-05T21:51:09.199Z,10.82
2023-05-05T21:53:37.778Z,8.23
2023-05-05T21:56:07.631Z,6.40
2023-05-05T21:58:35.410Z,5.65
2023-05-05T22:01:03.234Z,6.55
2023-05-05T22:03:35.024Z,9.20
2023-05-05T22:06:02.873Z,11.25
2023-05-05T22:08:30.638Z,9.10
2023-05-05T22:10:58.334Z,10.50
2023-05-05T22:13:27.402Z,9.27
2023-05-05T22:15:55.154Z,7.63
2023-05-05T22:18:22.908Z,10.48
2023-05-05T22:20:51.272Z,8.93
2023-05-05T22:23:19.145Z,8.10
2023-05-05T22:25:46.886Z,6.95
2023-05-05T22:28:14.611Z,12.02
2023-05-05T22:30:43.787Z,8.13
2023-05-05T22:33:11.612Z,9.95
2023-05-05T22:35:39.565Z,11.05
2023-05-05T22:38:07.389Z,9.15
2023-05-05T22:40:35.671Z,8.02
2023-05-05T22:43:03.404Z,15.23
2023-05-05T22:45:31.215Z,9.80
2023-05-05T22:48:00.843Z,10.57
2023-05-05T22:50:28.858Z,11.00
2023-05-05T22:52:57.152Z,8.38
2023-05-05T22:55:24.946Z,13.20
2023-05-05T22:57:53.283Z,13.60
2023-05-05T23:00:21.056Z,11.45
2023-05-05T23:02:48.874Z,13.85
2023-05-05T23:05:18.015Z,10.82
2023-05-05T23:07:45.736Z,11.32
2023-05-05T23:10:13.442Z,13.00
2023-05-05T23:12:41.221Z,9.20
2023-05-05T23:15:10.056Z,13.35
2023-05-05T23:17:38.115Z,10.90
2023-05-05T23:20:09.557Z,11.52
2023-05-05T23:22:38.715Z,12.77
2023-05-05T23:25:07.453Z,12.60
2023-05-05T23:27:35.361Z,11.07
2023-05-05T23:30:03.163Z,11.70
2023-05-05T23:32:30.983Z,13.13
2023-05-05T23:34:58.690Z,12.27
2023-05-05T23:37:26.481Z,9.43
2023-05-05T23:39:55.539Z,9.45
2023-05-05T23:42:23.219Z,13.65
2023-05-05T23:44:50.940Z,12.67
2023-05-05T23:47:19.026Z,14.13
2023-05-05T23:49:46.777Z,10.65
2023-05-05T23:52:14.459Z,12.73
2023-05-05T23:54:42.606Z,10.82
2023-05-05T23:57:12.002Z,14.55
2023-05-05T23:59:40.421Z,16.20
